sensor_id;sensor_type;location;lat;lon;timestamp;P1;durP1;ratioP1;P2;durP2;ratioP2
15624;SDS011;7912;51.376;6.126;2024-02-04T00:02:20;6.40;;;5.90;;
15624;SDS011;7912;51.376;6.126;2024-02-04T00:04:51;7.13;;;6.43;;
15624;SDS011;7912;51.376;6.126;2024-02-04T00:07:19;6.67;;;6.07;;
15624;SDS011;7912;51.376;6.126;2024-02-04T00:09:46;6.77;;;6.17;;
15624;SDS011;7912;51.376;6.126;2024-02-04T00:12:13;7.27;;;6.63;;
15624;SDS011;7912;51.376;6.126;2024-02-04T00:14:41;7.60;;;6.90;;
15624;SDS011;7912;51.376;6.126;2024-02-04T00:17:08;7.37;;;6.77;;
15624;SDS011;7912;51.376;6.126;2024-02-04T00:19:35;6.57;;;6.07;;
15624;SDS011;7912;51.376;6.126;2024-02-04T00:22:03;7.67;;;6.97;;
15624;SDS011;7912;51.376;6.126;2024-02-04T00:24:30;8.37;;;7.17;;
15624;SDS011;7912;51.376;6.126;2024-02-04T00:26:57;7.43;;;6.73;;
15624;SDS011;7912;51.376;6.126;2024-02-04T00:29:25;7.77;;;7.07;;
15624;SDS011;7912;51.376;6.126;2024-02-04T00:31:52;7.13;;;6.43;;
15624;SDS011;7912;51.376;6.126;2024-02-04T00:34:19;7.50;;;6.80;;
15624;SDS011;7912;51.376;6.126;2024-02-04T00:36:47;7.57;;;6.87;;
15624;SDS011;7912;51.376;6.126;2024-02-04T00:39:15;7.60;;;7.00;;
15624;SDS011;7912;51.376;6.126;2024-02-04T00:41:42;7.27;;;6.67;;
15624;SDS011;7912;51.376;6.126;2024-02-04T00:44:09;6.87;;;6.27;;
15624;SDS011;7912;51.376;6.126;2024-02-04T00:46:37;7.10;;;6.50;;
15624;SDS011;7912;51.376;6.126;2024-02-04T00:49:04;6.33;;;5.83;;
15624;SDS011;7912;51.376;6.126;2024-02-04T00:51:32;6.53;;;5.93;;
15624;SDS011;7912;51.376;6.126;2024-02-04T00:53:59;6.40;;;5.80;;
15624;SDS011;7912;51.376;6.126;2024-02-04T00:56:26;6.07;;;5.60;;
15624;SDS011;7912;51.376;6.126;2024-02-04T00:58:54;6.27;;;5.77;;
15624;SDS011;7912;51.376;6.126;2024-02-04T01:01:21;6.30;;;5.70;;
15624;SDS011;7912;51.376;6.126;2024-02-04T01:03:48;6.37;;;5.87;;
15624;SDS011;7912;51.376;6.126;2024-02-04T01:06:16;5.90;;;5.40;;
15624;SDS011;7912;51.376;6.126;2024-02-04T01:08:43;6.30;;;5.70;;
15624;SDS011;7912;51.376;6.126;2024-02-04T01:11:11;6.23;;;5.73;;
15624;SDS011;7912;51.376;6.126;2024-02-04T01:13:38;5.73;;;5.23;;
15624;SDS011;7912;51.376;6.126;2024-02-04T01:16:05;5.30;;;4.90;;
15624;SDS011;7912;51.376;6.126;2024-02-04T01:18:33;6.00;;;5.40;;
15624;SDS011;7912;51.376;6.126;2024-02-04T01:21:00;5.40;;;4.90;;
15624;SDS011;7912;51.376;6.126;2024-02-04T01:23:27;5.87;;;5.37;;
15624;SDS011;7912;51.376;6.126;2024-02-04T01:25:55;5.67;;;5.27;;
15624;SDS011;7912;51.376;6.126;2024-02-04T01:28:22;5.93;;;5.43;;
15624;SDS011;7912;51.376;6.126;2024-02-04T01:30:49;6.20;;;5.67;;
15624;SDS011;7912;51.376;6.126;2024-02-04T01:33:16;6.07;;;5.60;;
15624;SDS011;7912;51.376;6.126;2024-02-04T01:35:44;6.00;;;5.50;;
15624;SDS011;7912;51.376;6.126;2024-02-04T01:38:11;5.87;;;5.37;;
15624;SDS011;7912;51.376;6.126;2024-02-04T01:40:38;5.77;;;5.37;;
15624;SDS011;7912;51.376;6.126;2024-02-04T01:43:06;6.17;;;5.67;;
15624;SDS011;7912;51.376;6.126;2024-02-04T01:45:33;6.80;;;6.20;;
15624;SDS011;7912;51.376;6.126;2024-02-04T01:48:01;6.50;;;5.90;;
15624;SDS011;7912;51.376;6.126;2024-02-04T01:50:28;5.60;;;5.20;;
15624;SDS011;7912;51.376;6.126;2024-02-04T01:52:56;6.77;;;6.20;;
15624;SDS011;7912;51.376;6.126;2024-02-04T01:55:24;5.97;;;5.57;;
15624;SDS011;7912;51.376;6.126;2024-02-04T01:57:51;6.17;;;5.67;;
15624;SDS011;7912;51.376;6.126;2024-02-04T02:00:20;5.80;;;5.40;;
15624;SDS011;7912;51.376;6.126;2024-02-04T02:02:47;6.30;;;5.80;;
15624;SDS011;7912;51.376;6.126;2024-02-04T02:05:18;6.47;;;5.90;;
15624;SDS011;7912;51.376;6.126;2024-02-04T02:07:45;6.30;;;5.73;;
15624;SDS011;7912;51.376;6.126;2024-02-04T02:10:18;5.50;;;5.10;;
15624;SDS011;7912;51.376;6.126;2024-02-04T02:15:20;6.40;;;5.90;;
15624;SDS011;7912;51.376;6.126;2024-02-04T02:17:57;5.90;;;5.40;;
15624;SDS011;7912;51.376;6.126;2024-02-04T02:20:32;5.80;;;5.30;;
15624;SDS011;7912;51.376;6.126;2024-02-04T02:23:47;5.30;;;4.90;;
15624;SDS011;7912;51.376;6.126;2024-02-04T02:26:37;5.50;;;5.10;;
15624;SDS011;7912;51.376;6.126;2024-02-04T02:29:05;5.43;;;5.03;;
15624;SDS011;7912;51.376;6.126;2024-02-04T02:31:35;5.70;;;5.20;;
15624;SDS011;7912;51.376;6.126;2024-02-04T02:34:14;5.50;;;5.10;;
15624;SDS011;7912;51.376;6.126;2024-02-04T02:40:01;6.23;;;5.73;;
15624;SDS011;7912;51.376;6.126;2024-02-04T02:42:42;6.00;;;5.43;;
15624;SDS011;7912;51.376;6.126;2024-02-04T02:45:12;5.47;;;5.03;;
15624;SDS011;7912;51.376;6.126;2024-02-04T02:47:40;6.23;;;5.73;;
15624;SDS011;7912;51.376;6.126;2024-02-04T02:50:12;6.27;;;5.77;;
15624;SDS011;7912;51.376;6.126;2024-02-04T02:52:40;6.70;;;5.97;;
15624;SDS011;7912;51.376;6.126;2024-02-04T02:55:07;6.27;;;5.77;;
15624;SDS011;7912;51.376;6.126;2024-02-04T02:57:35;6.67;;;6.07;;
15624;SDS011;7912;51.376;6.126;2024-02-04T03:00:02;6.17;;;5.67;;
15624;SDS011;7912;51.376;6.126;2024-02-04T03:02:32;6.57;;;6.00;;
15624;SDS011;7912;51.376;6.126;2024-02-04T03:04:59;7.53;;;6.83;;
15624;SDS011;7912;51.376;6.126;2024-02-04T03:07:27;7.83;;;7.17;;
15624;SDS011;7912;51.376;6.126;2024-02-04T03:09:54;8.07;;;7.37;;
15624;SDS011;7912;51.376;6.126;2024-02-04T03:12:21;9.53;;;8.73;;
15624;SDS011;7912;51.376;6.126;2024-02-04T03:14:48;10.33;;;9.23;;
15624;SDS011;7912;51.376;6.126;2024-02-04T03:17:16;10.47;;;9.47;;
15624;SDS011;7912;51.376;6.126;2024-02-04T03:19:50;10.60;;;9.60;;
15624;SDS011;7912;51.376;6.126;2024-02-04T03:22:21;11.67;;;10.53;;
15624;SDS011;7912;51.376;6.126;2024-02-04T03:24:48;11.00;;;9.90;;
15624;SDS011;7912;51.376;6.126;2024-02-04T03:27:17;11.83;;;10.17;;
15624;SDS011;7912;51.376;6.126;2024-02-04T03:29:44;11.70;;;10.27;;
15624;SDS011;7912;51.376;6.126;2024-02-04T03:32:12;13.30;;;11.43;;
15624;SDS011;7912;51.376;6.126;2024-02-04T03:34:42;12.03;;;10.87;;
15624;SDS011;7912;51.376;6.126;2024-02-04T03:37:10;11.63;;;10.53;;
15624;SDS011;7912;51.376;6.126;2024-02-04T03:39:37;12.83;;;10.97;;
15624;SDS011;7912;51.376;6.126;2024-02-04T03:42:04;11.77;;;10.67;;
15624;SDS011;7912;51.376;6.126;2024-02-04T03:44:32;11.43;;;10.23;;
15624;SDS011;7912;51.376;6.126;2024-02-04T03:46:59;10.97;;;9.80;;
15624;SDS011;7912;51.376;6.126;2024-02-04T03:49:26;10.60;;;9.50;;
15624;SDS011;7912;51.376;6.126;2024-02-04T03:51:54;12.30;;;9.90;;
15624;SDS011;7912;51.376;6.126;2024-02-04T03:54:21;11.00;;;9.37;;
15624;SDS011;7912;51.376;6.126;2024-02-04T03:56:48;11.00;;;8.83;;
15624;SDS011;7912;51.376;6.126;2024-02-04T03:59:15;11.27;;;10.07;;
15624;SDS011;7912;51.376;6.126;2024-02-04T04:01:49;9.67;;;8.67;;
15624;SDS011;7912;51.376;6.126;2024-02-04T04:04:20;10.17;;;9.17;;
15624;SDS011;7912;51.376;6.126;2024-02-04T04:06:53;12.57;;;9.57;;
15624;SDS011;7912;51.376;6.126;2024-02-04T04:09:20;10.43;;;9.37;;
15624;SDS011;7912;51.376;6.126;2024-02-04T04:11:47;12.53;;;10.47;;
15624;SDS011;7912;51.376;6.126;2024-02-04T04:14:15;11.87;;;10.77;;
15624;SDS011;7912;51.376;6.126;2024-02-04T04:16:42;12.50;;;11.20;;
15624;SDS011;7912;51.376;6.126;2024-02-04T04:19:09;12.90;;;11.67;;
15624;SDS011;7912;51.376;6.126;2024-02-04T04:21:37;14.13;;;12.00;;
15624;SDS011;7912;51.376;6.126;2024-02-04T04:24:04;13.47;;;12.07;;
15624;SDS011;7912;51.376;6.126;2024-02-04T04:26:32;13.47;;;12.00;;
15624;SDS011;7912;51.376;6.126;2024-02-04T04:29:00;13.30;;;11.63;;
15624;SDS011;7912;51.376;6.126;2024-02-04T04:31:28;12.80;;;11.57;;
15624;SDS011;7912;51.376;6.126;2024-02-04T04:33:55;12.50;;;11.23;;
15624;SDS011;7912;51.376;6.126;2024-02-04T04:36:22;14.23;;;12.30;;
15624;SDS011;7912;51.376;6.126;2024-02-04T04:38:50;15.87;;;13.00;;
15624;SDS011;7912;51.376;6.126;2024-02-04T04:41:19;12.20;;;11.00;;
15624;SDS011;7912;51.376;6.126;2024-02-04T04:43:47;13.53;;;11.20;;
15624;SDS011;7912;51.376;6.126;2024-02-04T04:46:17;13.37;;;12.00;;
15624;SDS011;7912;51.376;6.126;2024-02-04T04:48:44;16.50;;;11.80;;
15624;SDS011;7912;51.376;6.126;2024-02-04T04:51:12;13.40;;;11.90;;
15624;SDS011;7912;51.376;6.126;2024-02-04T04:53:39;15.90;;;13.17;;
15624;SDS011;7912;51.376;6.126;2024-02-04T04:56:06;14.40;;;12.97;;
15624;SDS011;7912;51.376;6.126;2024-02-04T04:58:35;15.23;;;13.57;;
15624;SDS011;7912;51.376;6.126;2024-02-04T05:01:02;15.53;;;13.93;;
15624;SDS011;7912;51.376;6.126;2024-02-04T05:03:31;17.60;;;15.13;;
15624;SDS011;7912;51.376;6.126;2024-02-04T05:05:59;16.43;;;14.60;;
15624;SDS011;7912;51.376;6.126;2024-02-04T05:08:27;19.20;;;15.93;;
15624;SDS011;7912;51.376;6.126;2024-02-04T05:10:54;17.73;;;15.37;;
15624;SDS011;7912;51.376;6.126;2024-02-04T05:13:22;17.70;;;15.73;;
15624;SDS011;7912;51.376;6.126;2024-02-04T05:15:49;17.60;;;15.80;;
15624;SDS011;7912;51.376;6.126;2024-02-04T05:18:16;18.87;;;16.97;;
15624;SDS011;7912;51.376;6.126;2024-02-04T05:20:43;21.77;;;16.67;;
15624;SDS011;7912;51.376;6.126;2024-02-04T05:23:11;18.30;;;16.40;;
15624;SDS011;7912;51.376;6.126;2024-02-04T05:25:38;18.07;;;16.27;;
15624;SDS011;7912;51.376;6.126;2024-02-04T05:28:06;19.97;;;15.93;;
15624;SDS011;7912;51.376;6.126;2024-02-04T05:30:33;19.33;;;16.33;;
15624;SDS011;7912;51.376;6.126;2024-02-04T05:33:00;18.40;;;16.40;;
15624;SDS011;7912;51.376;6.126;2024-02-04T05:35:28;19.17;;;16.40;;
15624;SDS011;7912;51.376;6.126;2024-02-04T05:37:55;20.53;;;17.33;;
15624;SDS011;7912;51.376;6.126;2024-02-04T05:40:22;19.57;;;16.43;;
15624;SDS011;7912;51.376;6.126;2024-02-04T05:42:50;18.70;;;16.70;;
15624;SDS011;7912;51.376;6.126;2024-02-04T05:45:18;21.30;;;17.13;;
15624;SDS011;7912;51.376;6.126;2024-02-04T05:47:45;19.90;;;17.20;;
15624;SDS011;7912;51.376;6.126;2024-02-04T05:50:12;23.07;;;17.20;;
15624;SDS011;7912;51.376;6.126;2024-02-04T05:52:40;20.63;;;16.97;;
15624;SDS011;7912;51.376;6.126;2024-02-04T05:55:10;19.80;;;16.70;;
15624;SDS011;7912;51.376;6.126;2024-02-04T05:57:40;21.03;;;17.40;;
15624;SDS011;7912;51.376;6.126;2024-02-04T06:00:08;21.90;;;17.60;;
15624;SDS011;7912;51.376;6.126;2024-02-04T06:02:36;20.20;;;15.43;;
15624;SDS011;7912;51.376;6.126;2024-02-04T06:05:04;20.63;;;16.33;;
15624;SDS011;7912;51.376;6.126;2024-02-04T06:07:31;18.70;;;15.43;;
15624;SDS011;7912;51.376;6.126;2024-02-04T06:09:58;20.43;;;16.40;;
15624;SDS011;7912;51.376;6.126;2024-02-04T06:12:26;20.00;;;15.73;;
15624;SDS011;7912;51.376;6.126;2024-02-04T06:14:54;18.60;;;15.57;;
15624;SDS011;7912;51.376;6.126;2024-02-04T06:17:21;20.87;;;14.53;;
15624;SDS011;7912;51.376;6.126;2024-02-04T06:19:48;19.77;;;15.13;;
15624;SDS011;7912;51.376;6.126;2024-02-04T06:22:16;17.53;;;14.47;;
15624;SDS011;7912;51.376;6.126;2024-02-04T06:24:43;23.43;;;15.20;;
15624;SDS011;7912;51.376;6.126;2024-02-04T06:27:10;17.50;;;15.53;;
15624;SDS011;7912;51.376;6.126;2024-02-04T06:29:38;18.50;;;14.43;;
15624;SDS011;7912;51.376;6.126;2024-02-04T06:32:07;15.30;;;13.70;;
15624;SDS011;7912;51.376;6.126;2024-02-04T06:34:34;16.40;;;14.03;;
15624;SDS011;7912;51.376;6.126;2024-02-04T06:37:02;15.70;;;13.60;;
15624;SDS011;7912;51.376;6.126;2024-02-04T06:39:30;18.60;;;13.23;;
15624;SDS011;7912;51.376;6.126;2024-02-04T06:41:57;16.43;;;13.43;;
15624;SDS011;7912;51.376;6.126;2024-02-04T06:44:24;16.30;;;12.80;;
15624;SDS011;7912;51.376;6.126;2024-02-04T06:46:51;15.30;;;12.67;;
15624;SDS011;7912;51.376;6.126;2024-02-04T06:49:19;13.43;;;11.63;;
15624;SDS011;7912;51.376;6.126;2024-02-04T06:51:46;13.60;;;11.20;;
15624;SDS011;7912;51.376;6.126;2024-02-04T06:54:14;15.53;;;12.03;;
15624;SDS011;7912;51.376;6.126;2024-02-04T06:56:41;12.10;;;10.80;;
15624;SDS011;7912;51.376;6.126;2024-02-04T06:59:08;12.37;;;10.63;;
15624;SDS011;7912;51.376;6.126;2024-02-04T07:01:36;13.63;;;11.40;;
15624;SDS011;7912;51.376;6.126;2024-02-04T07:04:03;12.53;;;11.13;;
15624;SDS011;7912;51.376;6.126;2024-02-04T07:06:31;12.87;;;11.33;;
15624;SDS011;7912;51.376;6.126;2024-02-04T07:09:00;12.83;;;11.43;;
15624;SDS011;7912;51.376;6.126;2024-02-04T07:11:28;12.70;;;11.27;;
15624;SDS011;7912;51.376;6.126;2024-02-04T07:13:55;12.50;;;11.23;;
15624;SDS011;7912;51.376;6.126;2024-02-04T07:16:27;12.03;;;10.73;;
15624;SDS011;7912;51.376;6.126;2024-02-04T07:18:54;14.43;;;11.10;;
15624;SDS011;7912;51.376;6.126;2024-02-04T07:21:22;13.20;;;10.70;;
15624;SDS011;7912;51.376;6.126;2024-02-04T07:23:50;11.97;;;10.77;;
15624;SDS011;7912;51.376;6.126;2024-02-04T07:26:17;12.30;;;11.10;;
15624;SDS011;7912;51.376;6.126;2024-02-04T07:28:44;12.83;;;11.20;;
15624;SDS011;7912;51.376;6.126;2024-02-04T07:31:11;11.60;;;10.43;;
15624;SDS011;7912;51.376;6.126;2024-02-04T07:33:39;11.80;;;10.63;;
15624;SDS011;7912;51.376;6.126;2024-02-04T07:36:06;11.83;;;10.63;;
15624;SDS011;7912;51.376;6.126;2024-02-04T07:38:35;13.23;;;11.30;;
15624;SDS011;7912;51.376;6.126;2024-02-04T07:41:02;13.33;;;10.30;;
15624;SDS011;7912;51.376;6.126;2024-02-04T07:43:29;11.63;;;10.40;;
15624;SDS011;7912;51.376;6.126;2024-02-04T07:45:57;11.57;;;10.37;;
15624;SDS011;7912;51.376;6.126;2024-02-04T07:48:28;12.30;;;10.80;;
15624;SDS011;7912;51.376;6.126;2024-02-04T07:50:55;13.93;;;11.10;;
15624;SDS011;7912;51.376;6.126;2024-02-04T07:53:22;12.43;;;11.13;;
15624;SDS011;7912;51.376;6.126;2024-02-04T07:55:50;11.80;;;10.70;;
15624;SDS011;7912;51.376;6.126;2024-02-04T07:58:17;12.00;;;10.80;;
15624;SDS011;7912;51.376;6.126;2024-02-04T08:00:44;12.80;;;10.77;;
15624;SDS011;7912;51.376;6.126;2024-02-04T08:03:12;12.23;;;10.20;;
15624;SDS011;7912;51.376;6.126;2024-02-04T08:05:39;11.10;;;9.47;;
15624;SDS011;7912;51.376;6.126;2024-02-04T08:08:06;11.07;;;9.63;;
15624;SDS011;7912;51.376;6.126;2024-02-04T08:10:34;10.77;;;9.67;;
15624;SDS011;7912;51.376;6.126;2024-02-04T08:13:01;10.43;;;9.33;;
15624;SDS011;7912;51.376;6.126;2024-02-04T08:15:29;11.17;;;9.17;;
15624;SDS011;7912;51.376;6.126;2024-02-04T08:17:56;10.17;;;9.07;;
15624;SDS011;7912;51.376;6.126;2024-02-04T08:20:23;10.53;;;9.43;;
15624;SDS011;7912;51.376;6.126;2024-02-04T08:22:51;11.17;;;10.00;;
15624;SDS011;7912;51.376;6.126;2024-02-04T08:25:34;10.40;;;9.13;;
15624;SDS011;7912;51.376;6.126;2024-02-04T08:28:01;11.90;;;9.67;;
15624;SDS011;7912;51.376;6.126;2024-02-04T08:30:30;10.80;;;9.47;;
15624;SDS011;7912;51.376;6.126;2024-02-04T08:32:57;10.77;;;9.67;;
15624;SDS011;7912;51.376;6.126;2024-02-04T08:35:24;11.47;;;9.10;;
15624;SDS011;7912;51.376;6.126;2024-02-04T08:37:51;10.20;;;8.93;;
15624;SDS011;7912;51.376;6.126;2024-02-04T08:40:19;10.50;;;9.37;;
15624;SDS011;7912;51.376;6.126;2024-02-04T08:42:46;8.90;;;8.00;;
15624;SDS011;7912;51.376;6.126;2024-02-04T08:45:13;10.17;;;8.37;;
15624;SDS011;7912;51.376;6.126;2024-02-04T08:47:40;8.73;;;7.50;;
15624;SDS011;7912;51.376;6.126;2024-02-04T08:50:08;10.10;;;7.63;;
15624;SDS011;7912;51.376;6.126;2024-02-04T08:52:38;9.77;;;7.60;;
15624;SDS011;7912;51.376;6.126;2024-02-04T08:55:05;8.60;;;7.70;;
15624;SDS011;7912;51.376;6.126;2024-02-04T08:57:33;8.50;;;7.70;;
15624;SDS011;7912;51.376;6.126;2024-02-04T09:00:01;7.73;;;6.93;;
15624;SDS011;7912;51.376;6.126;2024-02-04T09:02:28;8.60;;;7.43;;
15624;SDS011;7912;51.376;6.126;2024-02-04T09:04:55;7.77;;;7.07;;
15624;SDS011;7912;51.376;6.126;2024-02-04T09:07:23;8.07;;;7.27;;
15624;SDS011;7912;51.376;6.126;2024-02-04T09:09:50;8.40;;;7.60;;
15624;SDS011;7912;51.376;6.126;2024-02-04T09:12:17;8.97;;;8.07;;
15624;SDS011;7912;51.376;6.126;2024-02-04T09:14:44;9.63;;;7.87;;
15624;SDS011;7912;51.376;6.126;2024-02-04T09:17:12;8.77;;;7.87;;
15624;SDS011;7912;51.376;6.126;2024-02-04T09:19:40;8.77;;;7.73;;
15624;SDS011;7912;51.376;6.126;2024-02-04T09:22:08;9.33;;;8.30;;
15624;SDS011;7912;51.376;6.126;2024-02-04T09:24:36;8.53;;;7.73;;
15624;SDS011;7912;51.376;6.126;2024-02-04T09:27:05;9.40;;;8.50;;
15624;SDS011;7912;51.376;6.126;2024-02-04T09:29:32;8.87;;;7.90;;
15624;SDS011;7912;51.376;6.126;2024-02-04T09:35:17;8.70;;;7.63;;
15624;SDS011;7912;51.376;6.126;2024-02-04T09:37:44;8.93;;;7.93;;
15624;SDS011;7912;51.376;6.126;2024-02-04T09:40:15;8.07;;;7.27;;
15624;SDS011;7912;51.376;6.126;2024-02-04T09:42:43;8.30;;;7.43;;
15624;SDS011;7912;51.376;6.126;2024-02-04T09:45:11;8.53;;;7.30;;
15624;SDS011;7912;51.376;6.126;2024-02-04T09:47:45;7.63;;;6.83;;
15624;SDS011;7912;51.376;6.126;2024-02-04T09:50:13;6.90;;;6.13;;
15624;SDS011;7912;51.376;6.126;2024-02-04T09:52:46;8.10;;;7.30;;
15624;SDS011;7912;51.376;6.126;2024-02-04T09:55:21;7.17;;;6.57;;
15624;SDS011;7912;51.376;6.126;2024-02-04T09:57:50;7.27;;;6.57;;
15624;SDS011;7912;51.376;6.126;2024-02-04T10:00:18;7.17;;;6.47;;
15624;SDS011;7912;51.376;6.126;2024-02-04T10:03:02;6.97;;;6.23;;
15624;SDS011;7912;51.376;6.126;2024-02-04T10:05:32;7.23;;;6.53;;
15624;SDS011;7912;51.376;6.126;2024-02-04T10:08:02;6.63;;;5.97;;
15624;SDS011;7912;51.376;6.126;2024-02-04T10:10:30;6.43;;;5.83;;
15624;SDS011;7912;51.376;6.126;2024-02-04T10:12:59;6.57;;;5.97;;
15624;SDS011;7912;51.376;6.126;2024-02-04T10:15:34;6.53;;;5.93;;
15624;SDS011;7912;51.376;6.126;2024-02-04T10:18:05;6.10;;;5.50;;
15624;SDS011;7912;51.376;6.126;2024-02-04T10:20:34;6.53;;;5.93;;
15624;SDS011;7912;51.376;6.126;2024-02-04T10:23:02;5.80;;;5.30;;
15624;SDS011;7912;51.376;6.126;2024-02-04T10:25:32;6.20;;;5.70;;
15624;SDS011;7912;51.376;6.126;2024-02-04T10:28:02;6.30;;;5.73;;
15624;SDS011;7912;51.376;6.126;2024-02-04T10:30:30;6.63;;;5.77;;
15624;SDS011;7912;51.376;6.126;2024-02-04T10:32:57;6.40;;;5.80;;
15624;SDS011;7912;51.376;6.126;2024-02-04T10:35:26;8.23;;;6.17;;
15624;SDS011;7912;51.376;6.126;2024-02-04T10:37:53;6.17;;;5.57;;
15624;SDS011;7912;51.376;6.126;2024-02-04T10:40:20;5.70;;;5.10;;
15624;SDS011;7912;51.376;6.126;2024-02-04T10:42:48;7.10;;;5.67;;
15624;SDS011;7912;51.376;6.126;2024-02-04T10:45:17;6.03;;;5.43;;
15624;SDS011;7912;51.376;6.126;2024-02-04T10:47:52;6.97;;;5.70;;
15624;SDS011;7912;51.376;6.126;2024-02-04T10:50:25;6.40;;;5.43;;
15624;SDS011;7912;51.376;6.126;2024-02-04T10:52:57;6.77;;;5.63;;
15624;SDS011;7912;51.376;6.126;2024-02-04T10:55:34;7.73;;;5.90;;
15624;SDS011;7912;51.376;6.126;2024-02-04T10:58:11;6.27;;;5.67;;
15624;SDS011;7912;51.376;6.126;2024-02-04T11:00:43;6.40;;;5.67;;
15624;SDS011;7912;51.376;6.126;2024-02-04T11:03:14;6.30;;;5.70;;
15624;SDS011;7912;51.376;6.126;2024-02-04T11:05:47;6.77;;;6.07;;
15624;SDS011;7912;51.376;6.126;2024-02-04T11:08:18;5.97;;;5.40;;
15624;SDS011;7912;51.376;6.126;2024-02-04T11:10:45;6.43;;;5.50;;
15624;SDS011;7912;51.376;6.126;2024-02-04T11:13:12;7.07;;;5.63;;
15624;SDS011;7912;51.376;6.126;2024-02-04T11:15:42;7.30;;;5.57;;
15624;SDS011;7912;51.376;6.126;2024-02-04T11:26:53;7.27;;;5.60;;
15624;SDS011;7912;51.376;6.126;2024-02-04T11:29:21;6.27;;;5.53;;
15624;SDS011;7912;51.376;6.126;2024-02-04T11:31:49;6.13;;;5.53;;
15624;SDS011;7912;51.376;6.126;2024-02-04T11:34:18;6.63;;;5.87;;
15624;SDS011;7912;51.376;6.126;2024-02-04T11:36:46;6.57;;;5.47;;
15624;SDS011;7912;51.376;6.126;2024-02-04T11:39:13;7.67;;;5.70;;
15624;SDS011;7912;51.376;6.126;2024-02-04T11:41:51;5.17;;;4.67;;
15624;SDS011;7912;51.376;6.126;2024-02-04T11:44:22;6.13;;;5.17;;
15624;SDS011;7912;51.376;6.126;2024-02-04T11:46:54;5.60;;;4.97;;
15624;SDS011;7912;51.376;6.126;2024-02-04T11:49:24;5.50;;;4.90;;
15624;SDS011;7912;51.376;6.126;2024-02-04T11:51:53;5.97;;;4.83;;
15624;SDS011;7912;51.376;6.126;2024-02-04T11:54:21;5.07;;;4.67;;
15624;SDS011;7912;51.376;6.126;2024-02-04T11:56:50;5.80;;;5.20;;
15624;SDS011;7912;51.376;6.126;2024-02-04T11:59:24;6.40;;;5.00;;
15624;SDS011;7912;51.376;6.126;2024-02-04T12:01:56;6.77;;;4.90;;
15624;SDS011;7912;51.376;6.126;2024-02-04T12:04:32;7.13;;;5.47;;
15624;SDS011;7912;51.376;6.126;2024-02-04T12:07:01;5.60;;;5.10;;
15624;SDS011;7912;51.376;6.126;2024-02-04T12:09:30;5.40;;;4.90;;
15624;SDS011;7912;51.376;6.126;2024-02-04T12:11:58;5.97;;;5.30;;
15624;SDS011;7912;51.376;6.126;2024-02-04T12:14:26;5.47;;;4.97;;
15624;SDS011;7912;51.376;6.126;2024-02-04T12:16:56;6.17;;;5.57;;
15624;SDS011;7912;51.376;6.126;2024-02-04T12:19:26;5.80;;;5.20;;
15624;SDS011;7912;51.376;6.126;2024-02-04T12:21:54;6.77;;;6.13;;
15624;SDS011;7912;51.376;6.126;2024-02-04T12:24:21;7.50;;;6.80;;
15624;SDS011;7912;51.376;6.126;2024-02-04T12:26:49;7.80;;;5.67;;
15624;SDS011;7912;51.376;6.126;2024-02-04T12:29:16;6.43;;;5.73;;
15624;SDS011;7912;51.376;6.126;2024-02-04T12:31:43;5.97;;;5.47;;
15624;SDS011;7912;51.376;6.126;2024-02-04T12:34:12;7.77;;;5.40;;
15624;SDS011;7912;51.376;6.126;2024-02-04T12:36:40;6.10;;;5.50;;
15624;SDS011;7912;51.376;6.126;2024-02-04T12:39:14;5.83;;;5.17;;
15624;SDS011;7912;51.376;6.126;2024-02-04T12:41:41;5.63;;;4.87;;
15624;SDS011;7912;51.376;6.126;2024-02-04T12:44:09;6.03;;;5.43;;
15624;SDS011;7912;51.376;6.126;2024-02-04T12:46:36;5.20;;;4.70;;
15624;SDS011;7912;51.376;6.126;2024-02-04T12:49:03;6.10;;;5.50;;
15624;SDS011;7912;51.376;6.126;2024-02-04T12:51:32;5.73;;;5.23;;
15624;SDS011;7912;51.376;6.126;2024-02-04T12:56:44;7.23;;;5.77;;
15624;SDS011;7912;51.376;6.126;2024-02-04T12:59:29;5.23;;;4.83;;
15624;SDS011;7912;51.376;6.126;2024-02-04T13:01:58;5.80;;;5.10;;
15624;SDS011;7912;51.376;6.126;2024-02-04T13:04:34;6.60;;;5.23;;
15624;SDS011;7912;51.376;6.126;2024-02-04T13:07:10;7.30;;;5.23;;
15624;SDS011;7912;51.376;6.126;2024-02-04T13:09:41;6.07;;;5.47;;
15624;SDS011;7912;51.376;6.126;2024-02-04T13:12:09;5.83;;;5.07;;
15624;SDS011;7912;51.376;6.126;2024-02-04T13:14:38;6.00;;;5.40;;
15624;SDS011;7912;51.376;6.126;2024-02-04T13:17:10;5.23;;;4.80;;
15624;SDS011;7912;51.376;6.126;2024-02-04T13:19:39;5.57;;;5.07;;
15624;SDS011;7912;51.376;6.126;2024-02-04T13:22:07;8.30;;;5.77;;
15624;SDS011;7912;51.376;6.126;2024-02-04T13:24:41;6.80;;;4.93;;
15624;SDS011;7912;51.376;6.126;2024-02-04T13:27:08;6.47;;;5.20;;
15624;SDS011;7912;51.376;6.126;2024-02-04T13:29:35;6.00;;;5.27;;
15624;SDS011;7912;51.376;6.126;2024-02-04T13:32:03;6.20;;;5.43;;
15624;SDS011;7912;51.376;6.126;2024-02-04T13:34:32;8.53;;;5.50;;
15624;SDS011;7912;51.376;6.126;2024-02-04T13:36:59;6.03;;;5.50;;
15624;SDS011;7912;51.376;6.126;2024-02-04T13:39:35;6.93;;;5.00;;
15624;SDS011;7912;51.376;6.126;2024-02-04T13:42:02;6.40;;;5.10;;
15624;SDS011;7912;51.376;6.126;2024-02-04T13:44:29;6.23;;;4.80;;
15624;SDS011;7912;51.376;6.126;2024-02-04T13:46:57;6.33;;;5.40;;
15624;SDS011;7912;51.376;6.126;2024-02-04T13:49:25;7.03;;;6.07;;
15624;SDS011;7912;51.376;6.126;2024-02-04T13:51:53;5.53;;;5.03;;
15624;SDS011;7912;51.376;6.126;2024-02-04T13:54:20;6.43;;;5.23;;
15624;SDS011;7912;51.376;6.126;2024-02-04T13:56:48;6.50;;;5.37;;
15624;SDS011;7912;51.376;6.126;2024-02-04T13:59:16;6.27;;;5.10;;
15624;SDS011;7912;51.376;6.126;2024-02-04T14:01:46;5.97;;;4.87;;
15624;SDS011;7912;51.376;6.126;2024-02-04T14:04:14;5.70;;;4.90;;
15624;SDS011;7912;51.376;6.126;2024-02-04T14:06:42;5.60;;;4.97;;
15624;SDS011;7912;51.376;6.126;2024-02-04T14:09:09;5.63;;;5.03;;
15624;SDS011;7912;51.376;6.126;2024-02-04T14:11:39;6.77;;;5.33;;
15624;SDS011;7912;51.376;6.126;2024-02-04T14:14:09;5.93;;;5.00;;
15624;SDS011;7912;51.376;6.126;2024-02-04T14:16:36;6.27;;;5.10;;
15624;SDS011;7912;51.376;6.126;2024-02-04T14:19:04;6.30;;;5.17;;
15624;SDS011;7912;51.376;6.126;2024-02-04T14:21:31;5.30;;;4.67;;
15624;SDS011;7912;51.376;6.126;2024-02-04T14:23:59;5.77;;;5.20;;
15624;SDS011;7912;51.376;6.126;2024-02-04T14:26:27;7.03;;;5.07;;
15624;SDS011;7912;51.376;6.126;2024-02-04T14:28:54;5.80;;;5.20;;
15624;SDS011;7912;51.376;6.126;2024-02-04T14:31:22;5.57;;;4.83;;
15624;SDS011;7912;51.376;6.126;2024-02-04T14:33:50;6.10;;;4.93;;
15624;SDS011;7912;51.376;6.126;2024-02-04T14:36:17;5.33;;;4.83;;
15624;SDS011;7912;51.376;6.126;2024-02-04T14:38:45;5.80;;;4.83;;
15624;SDS011;7912;51.376;6.126;2024-02-04T14:41:12;7.47;;;6.77;;
15624;SDS011;7912;51.376;6.126;2024-02-04T14:43:40;7.10;;;5.27;;
15624;SDS011;7912;51.376;6.126;2024-02-04T14:46:07;5.23;;;4.67;;
15624;SDS011;7912;51.376;6.126;2024-02-04T14:48:38;4.83;;;4.13;;
15624;SDS011;7912;51.376;6.126;2024-02-04T14:51:08;4.73;;;4.33;;
15624;SDS011;7912;51.376;6.126;2024-02-04T14:53:36;6.40;;;4.50;;
15624;SDS011;7912;51.376;6.126;2024-02-04T14:56:03;4.77;;;4.00;;
15624;SDS011;7912;51.376;6.126;2024-02-04T14:58:31;5.03;;;4.30;;
15624;SDS011;7912;51.376;6.126;2024-02-04T15:00:58;5.10;;;3.97;;
15624;SDS011;7912;51.376;6.126;2024-02-04T15:03:25;4.93;;;4.13;;
15624;SDS011;7912;51.376;6.126;2024-02-04T15:05:52;4.80;;;3.97;;
15624;SDS011;7912;51.376;6.126;2024-02-04T15:08:20;4.47;;;4.00;;
15624;SDS011;7912;51.376;6.126;2024-02-04T15:10:47;4.30;;;3.83;;
15624;SDS011;7912;51.376;6.126;2024-02-04T15:13:14;5.10;;;3.83;;
15624;SDS011;7912;51.376;6.126;2024-02-04T15:15:42;5.50;;;3.73;;
15624;SDS011;7912;51.376;6.126;2024-02-04T15:18:10;4.33;;;3.70;;
15624;SDS011;7912;51.376;6.126;2024-02-04T15:20:38;4.63;;;3.83;;
15624;SDS011;7912;51.376;6.126;2024-02-04T15:23:07;4.83;;;3.90;;